CMP115 MROC-MPTO
Flight info
| Callsign | CMP115 |
|---|---|
| Flight time | 0h 52m |
| Altitude | 35000 |
| Route | TEJAR3M LIO UA317 BUFEO DCT BITOR VUMAN2 |
| Aircraft | B738/M-SDE2E3FGHIRWXY/LB1 |
Departure
| Time | 2026-05-06 00:46 |
|---|---|
| Airport | Juan Santamaría International Airport (MROC) |
Arrival
| Time | 2026-05-06 01:38 |
|---|---|
| Airport | Tocumen International Airport (MPTO) |
| Time | Latitude | Longitude | Altitude | Speed | Heading |
|---|---|---|---|---|---|
| 2026-05-06 00:08 | 9.99750 | -84.20349 | 3024 ft | 0 kts | 339° |
| 2026-05-06 00:35 | 9.99742 | -84.20346 | 3033 ft | 2 kts | 336° |
| 2026-05-06 00:35 | 9.99727 | -84.20338 | 3035 ft | 2 kts | 330° |
| 2026-05-06 00:35 | 9.99713 | -84.20329 | 3034 ft | 2 kts | 315° |
| 2026-05-06 00:35 | 9.99704 | -84.20316 | 3034 ft | 2 kts | 274° |
| 2026-05-06 00:36 | 9.99706 | -84.20302 | 3033 ft | 1 kts | 250° |
| 2026-05-06 00:36 | 9.99707 | -84.20299 | 3033 ft | 0 kts | 249° |
| 2026-05-06 00:39 | 9.99706 | -84.20301 | 3034 ft | 1 kts | 249° |
| 2026-05-06 00:39 | 9.99697 | -84.20324 | 3035 ft | 6 kts | 247° |
| 2026-05-06 00:39 | 9.99673 | -84.20383 | 3034 ft | 11 kts | 250° |
| 2026-05-06 00:40 | 9.99647 | -84.20458 | 3035 ft | 11 kts | 249° |
| 2026-05-06 00:40 | 9.99618 | -84.20532 | 3034 ft | 11 kts | 248° |
| 2026-05-06 00:40 | 9.99591 | -84.20603 | 3036 ft | 11 kts | 250° |
| 2026-05-06 00:40 | 9.99566 | -84.20673 | 3034 ft | 11 kts | 249° |
| 2026-05-06 00:41 | 9.99531 | -84.20763 | 3033 ft | 16 kts | 249° |
| 2026-05-06 00:41 | 9.99487 | -84.20882 | 3032 ft | 16 kts | 250° |
| 2026-05-06 00:41 | 9.99439 | -84.21012 | 3018 ft | 24 kts | 248° |
| 2026-05-06 00:41 | 9.99372 | -84.21191 | 3003 ft | 29 kts | 249° |
| 2026-05-06 00:42 | 9.99302 | -84.21376 | 2992 ft | 27 kts | 249° |
| 2026-05-06 00:42 | 9.99238 | -84.21551 | 2978 ft | 26 kts | 249° |
| 2026-05-06 00:42 | 9.99176 | -84.21715 | 2969 ft | 24 kts | 249° |
| 2026-05-06 00:42 | 9.99117 | -84.21864 | 2957 ft | 14 kts | 248° |
| 2026-05-06 00:43 | 9.99092 | -84.21963 | 2953 ft | 16 kts | 271° |
| 2026-05-06 00:43 | 9.99101 | -84.22086 | 2948 ft | 13 kts | 257° |
| 2026-05-06 00:43 | 9.99070 | -84.22159 | 2940 ft | 10 kts | 240° |
| 2026-05-06 00:43 | 9.99015 | -84.22202 | 2940 ft | 11 kts | 186° |
| 2026-05-06 00:44 | 9.98947 | -84.22180 | 2948 ft | 10 kts | 158° |
| 2026-05-06 00:44 | 9.98921 | -84.22152 | 2942 ft | 3 kts | 91° |
| 2026-05-06 00:44 | 9.98925 | -84.22129 | 2942 ft | 3 kts | 78° |
| 2026-05-06 00:44 | 9.98927 | -84.22126 | 2949 ft | 0 kts | 71° |
| 2026-05-06 00:45 | 9.98928 | -84.22122 | 2949 ft | 5 kts | 72° |
| 2026-05-06 00:45 | 9.99014 | -84.21890 | 2959 ft | 69 kts | 68° |
| 2026-05-06 00:45 | 9.99263 | -84.21228 | 2997 ft | 130 kts | 69° |
| 2026-05-06 00:45 | 9.99650 | -84.20200 | 3054 ft | 180 kts | 71° |
| 2026-05-06 00:46 | 10.00094 | -84.18965 | 3749 ft | 184 kts | 69° |
| 2026-05-06 00:46 | 10.00562 | -84.17753 | 4549 ft | 190 kts | 69° |
| 2026-05-06 00:46 | 10.01060 | -84.16454 | 5020 ft | 206 kts | 67° |
| 2026-05-06 00:46 | 10.01601 | -84.15052 | 5279 ft | 220 kts | 68° |
| 2026-05-06 00:47 | 10.02137 | -84.13583 | 5721 ft | 226 kts | 76° |
| 2026-05-06 00:47 | 10.02101 | -84.11978 | 6142 ft | 235 kts | 107° |
| 2026-05-06 00:47 | 10.01196 | -84.10517 | 6338 ft | 261 kts | 135° |
| 2026-05-06 00:47 | 9.99747 | -84.09307 | 6719 ft | 276 kts | 140° |
| 2026-05-06 00:48 | 9.98206 | -84.08101 | 7283 ft | 283 kts | 140° |
| 2026-05-06 00:48 | 9.96646 | -84.06877 | 7988 ft | 283 kts | 140° |
| 2026-05-06 00:48 | 9.95087 | -84.05640 | 8667 ft | 287 kts | 140° |
| 2026-05-06 00:48 | 9.93509 | -84.04380 | 9350 ft | 289 kts | 140° |
| 2026-05-06 00:49 | 9.91943 | -84.03126 | 10014 ft | 291 kts | 140° |
| 2026-05-06 00:49 | 9.90318 | -84.01826 | 10367 ft | 306 kts | 140° |
| 2026-05-06 00:49 | 9.88581 | -84.00443 | 10501 ft | 326 kts | 140° |
| 2026-05-06 00:49 | 9.86743 | -83.98981 | 10640 ft | 345 kts | 140° |
| 2026-05-06 00:50 | 9.84816 | -83.97443 | 10974 ft | 355 kts | 138° |
| 2026-05-06 00:50 | 9.83230 | -83.95571 | 11448 ft | 355 kts | 117° |
| 2026-05-06 00:50 | 9.82410 | -83.93219 | 12061 ft | 353 kts | 98° |
| 2026-05-06 00:50 | 9.82357 | -83.90726 | 12605 ft | 355 kts | 85° |
| 2026-05-06 00:51 | 9.82565 | -83.88240 | 13131 ft | 358 kts | 84° |
| 2026-05-06 00:51 | 9.82774 | -83.85712 | 13670 ft | 361 kts | 89° |
| 2026-05-06 00:51 | 9.82683 | -83.83162 | 14190 ft | 363 kts | 92° |
| 2026-05-06 00:51 | 9.82602 | -83.80589 | 14632 ft | 366 kts | 90° |
| 2026-05-06 00:52 | 9.82584 | -83.77999 | 15086 ft | 369 kts | 90° |
| 2026-05-06 00:52 | 9.82587 | -83.75393 | 15541 ft | 371 kts | 89° |
| 2026-05-06 00:52 | 9.82590 | -83.72794 | 16026 ft | 373 kts | 90° |
| 2026-05-06 00:52 | 9.82588 | -83.70152 | 16489 ft | 376 kts | 90° |
| 2026-05-06 00:53 | 9.82580 | -83.67493 | 16950 ft | 378 kts | 90° |
| 2026-05-06 00:53 | 9.82568 | -83.64819 | 17413 ft | 381 kts | 90° |
| 2026-05-06 00:53 | 9.82551 | -83.62116 | 17861 ft | 384 kts | 90° |
| 2026-05-06 00:53 | 9.82532 | -83.59400 | 18299 ft | 387 kts | 90° |
| 2026-05-06 00:54 | 9.82512 | -83.56664 | 18672 ft | 389 kts | 90° |
| 2026-05-06 00:54 | 9.82498 | -83.54840 | 18924 ft | 391 kts | 90° |
| 2026-05-06 00:54 | 9.82478 | -83.52079 | 19298 ft | 393 kts | 90° |
| 2026-05-06 00:54 | 9.82457 | -83.49298 | 19649 ft | 396 kts | 90° |
| 2026-05-06 00:55 | 9.82434 | -83.46498 | 20005 ft | 398 kts | 90° |
| 2026-05-06 00:55 | 9.82411 | -83.43681 | 20361 ft | 401 kts | 90° |
| 2026-05-06 00:55 | 9.82387 | -83.40852 | 20706 ft | 403 kts | 90° |
| 2026-05-06 00:55 | 9.82364 | -83.38005 | 21049 ft | 405 kts | 90° |
| 2026-05-06 00:56 | 9.82340 | -83.35137 | 21361 ft | 408 kts | 90° |
| 2026-05-06 00:56 | 9.82315 | -83.32253 | 21692 ft | 410 kts | 90° |
| 2026-05-06 00:56 | 9.82291 | -83.29354 | 21988 ft | 412 kts | 90° |
| 2026-05-06 00:56 | 9.82266 | -83.26443 | 22305 ft | 414 kts | 90° |
| 2026-05-06 00:57 | 9.82241 | -83.23516 | 22609 ft | 416 kts | 90° |
| 2026-05-06 00:57 | 9.82215 | -83.20573 | 22905 ft | 419 kts | 90° |
| 2026-05-06 00:57 | 9.82189 | -83.17618 | 23213 ft | 421 kts | 90° |
| 2026-05-06 00:57 | 9.82163 | -83.14641 | 23501 ft | 423 kts | 90° |
| 2026-05-06 00:58 | 9.82136 | -83.11650 | 23742 ft | 425 kts | 90° |
| 2026-05-06 00:58 | 9.82109 | -83.08647 | 23990 ft | 427 kts | 90° |
| 2026-05-06 00:58 | 9.82081 | -83.05627 | 24240 ft | 429 kts | 90° |
| 2026-05-06 00:58 | 9.82053 | -83.02598 | 24470 ft | 431 kts | 90° |
| 2026-05-06 00:59 | 9.82025 | -82.99556 | 24702 ft | 433 kts | 90° |
| 2026-05-06 00:59 | 9.81996 | -82.96502 | 24946 ft | 434 kts | 90° |
| 2026-05-06 00:59 | 9.81967 | -82.93434 | 25186 ft | 436 kts | 90° |
| 2026-05-06 00:59 | 9.81937 | -82.90357 | 25413 ft | 437 kts | 90° |
| 2026-05-06 01:00 | 9.81907 | -82.87267 | 25631 ft | 439 kts | 90° |
| 2026-05-06 01:00 | 9.81877 | -82.84167 | 25854 ft | 441 kts | 90° |
| 2026-05-06 01:00 | 9.81846 | -82.81052 | 26079 ft | 442 kts | 90° |
| 2026-05-06 01:00 | 9.81815 | -82.77965 | 26289 ft | 444 kts | 90° |
| 2026-05-06 01:01 | 9.81784 | -82.74823 | 26504 ft | 446 kts | 90° |
| 2026-05-06 01:01 | 9.81752 | -82.71678 | 26713 ft | 447 kts | 90° |
| 2026-05-06 01:01 | 9.81719 | -82.68524 | 26927 ft | 448 kts | 90° |
| 2026-05-06 01:01 | 9.81687 | -82.65356 | 27125 ft | 450 kts | 90° |
| 2026-05-06 01:02 | 9.81654 | -82.62181 | 27325 ft | 451 kts | 90° |
| 2026-05-06 01:02 | 9.81581 | -82.58994 | 27520 ft | 453 kts | 94° |
| 2026-05-06 01:02 | 9.81140 | -82.55820 | 27702 ft | 456 kts | 102° |
| 2026-05-06 01:02 | 9.80226 | -82.52737 | 27895 ft | 458 kts | 108° |
| 2026-05-06 01:03 | 9.79156 | -82.49686 | 28096 ft | 459 kts | 109° |
| 2026-05-06 01:03 | 9.78062 | -82.46634 | 28274 ft | 461 kts | 109° |
| 2026-05-06 01:03 | 9.76966 | -82.43580 | 28450 ft | 462 kts | 109° |
| 2026-05-06 01:03 | 9.75887 | -82.40547 | 28631 ft | 463 kts | 108° |
| 2026-05-06 01:04 | 9.74802 | -82.37467 | 28814 ft | 464 kts | 108° |
| 2026-05-06 01:04 | 9.73724 | -82.34380 | 28993 ft | 466 kts | 108° |
| 2026-05-06 01:04 | 9.72645 | -82.31279 | 29179 ft | 466 kts | 108° |
| 2026-05-06 01:04 | 9.71571 | -82.28182 | 29439 ft | 465 kts | 108° |
| 2026-05-06 01:05 | 9.70498 | -82.25088 | 29729 ft | 464 kts | 108° |
| 2026-05-06 01:05 | 9.69426 | -82.21999 | 29959 ft | 464 kts | 108° |
| 2026-05-06 01:05 | 9.68357 | -82.18917 | 30160 ft | 464 kts | 108° |
| 2026-05-06 01:05 | 9.67287 | -82.15836 | 30379 ft | 463 kts | 108° |
| 2026-05-06 01:06 | 9.66217 | -82.12757 | 30605 ft | 462 kts | 108° |
| 2026-05-06 01:06 | 9.65148 | -82.09683 | 30814 ft | 462 kts | 108° |
| 2026-05-06 01:06 | 9.64082 | -82.06617 | 31019 ft | 462 kts | 108° |
| 2026-05-06 01:06 | 9.63014 | -82.03548 | 31230 ft | 461 kts | 108° |
| 2026-05-06 01:07 | 9.61947 | -82.00480 | 31460 ft | 461 kts | 108° |
| 2026-05-06 01:07 | 9.60884 | -81.97426 | 31698 ft | 460 kts | 108° |
| 2026-05-06 01:07 | 9.59819 | -81.94368 | 31911 ft | 459 kts | 108° |
| 2026-05-06 01:07 | 9.58756 | -81.91315 | 32101 ft | 460 kts | 108° |
| 2026-05-06 01:08 | 9.57690 | -81.88258 | 32305 ft | 460 kts | 108° |
| 2026-05-06 01:08 | 9.56628 | -81.85209 | 32543 ft | 459 kts | 108° |
| 2026-05-06 01:08 | 9.55577 | -81.82196 | 32763 ft | 458 kts | 108° |
| 2026-05-06 01:09 | 9.53448 | -81.76092 | 32850 ft | 461 kts | 108° |
| 2026-05-06 01:09 | 9.51316 | -81.69983 | 32851 ft | 459 kts | 108° |
| 2026-05-06 01:10 | 9.49192 | -81.63901 | 32853 ft | 457 kts | 108° |
| 2026-05-06 01:10 | 9.47080 | -81.57860 | 32832 ft | 447 kts | 108° |
| 2026-05-06 01:11 | 9.45036 | -81.52016 | 32850 ft | 437 kts | 108° |
| 2026-05-06 01:11 | 9.43008 | -81.46216 | 32859 ft | 437 kts | 108° |
| 2026-05-06 01:12 | 9.41015 | -81.40526 | 32833 ft | 416 kts | 109° |
| 2026-05-06 01:12 | 9.40064 | -81.37811 | 32825 ft | 403 kts | 109° |
| 2026-05-06 01:12 | 9.39144 | -81.35187 | 32832 ft | 390 kts | 109° |
| 2026-05-06 01:13 | 9.37330 | -81.30005 | 32868 ft | 395 kts | 109° |
| 2026-05-06 01:13 | 9.35470 | -81.24696 | 32868 ft | 405 kts | 109° |
| 2026-05-06 01:14 | 9.32611 | -81.16546 | 32800 ft | 407 kts | 109° |
| 2026-05-06 01:14 | 9.31669 | -81.13864 | 32449 ft | 403 kts | 109° |
| 2026-05-06 01:14 | 9.30740 | -81.11218 | 31601 ft | 407 kts | 109° |
| 2026-05-06 01:15 | 9.29776 | -81.08471 | 30478 ft | 420 kts | 108° |
| 2026-05-06 01:15 | 9.28793 | -81.05673 | 29670 ft | 421 kts | 108° |
| 2026-05-06 01:15 | 9.27817 | -81.02897 | 29082 ft | 417 kts | 108° |
| 2026-05-06 01:15 | 9.26908 | -81.00133 | 28684 ft | 410 kts | 105° |
| 2026-05-06 01:16 | 9.26158 | -80.97370 | 28212 ft | 401 kts | 103° |
| 2026-05-06 01:16 | 9.25487 | -80.94641 | 27575 ft | 398 kts | 102° |
| 2026-05-06 01:16 | 9.24839 | -80.91926 | 26910 ft | 395 kts | 102° |
| 2026-05-06 01:16 | 9.24191 | -80.89227 | 26306 ft | 392 kts | 103° |
| 2026-05-06 01:17 | 9.23542 | -80.86563 | 25747 ft | 388 kts | 103° |
| 2026-05-06 01:17 | 9.22889 | -80.83925 | 25201 ft | 384 kts | 103° |
| 2026-05-06 01:17 | 9.22237 | -80.81318 | 24656 ft | 380 kts | 103° |
| 2026-05-06 01:17 | 9.21595 | -80.78768 | 24121 ft | 377 kts | 103° |
| 2026-05-06 01:18 | 9.20947 | -80.76205 | 23589 ft | 374 kts | 103° |
| 2026-05-06 01:18 | 9.20303 | -80.73664 | 22989 ft | 371 kts | 103° |
| 2026-05-06 01:18 | 9.19664 | -80.71145 | 22412 ft | 366 kts | 103° |
| 2026-05-06 01:18 | 9.19033 | -80.68660 | 21841 ft | 362 kts | 103° |
| 2026-05-06 01:19 | 9.18409 | -80.66202 | 21277 ft | 359 kts | 103° |
| 2026-05-06 01:19 | 9.17790 | -80.63764 | 20721 ft | 356 kts | 103° |
| 2026-05-06 01:19 | 9.17174 | -80.61340 | 20237 ft | 355 kts | 103° |
| 2026-05-06 01:19 | 9.16561 | -80.58927 | 19830 ft | 351 kts | 103° |
| 2026-05-06 01:20 | 9.15963 | -80.56573 | 19435 ft | 348 kts | 103° |
| 2026-05-06 01:20 | 9.15361 | -80.54208 | 19005 ft | 345 kts | 103° |
| 2026-05-06 01:20 | 9.14764 | -80.51859 | 18596 ft | 343 kts | 103° |
| 2026-05-06 01:20 | 9.14173 | -80.49535 | 18185 ft | 340 kts | 103° |
| 2026-05-06 01:21 | 9.13584 | -80.47220 | 17731 ft | 338 kts | 103° |
| 2026-05-06 01:21 | 9.12998 | -80.44920 | 17274 ft | 335 kts | 103° |
| 2026-05-06 01:21 | 9.12418 | -80.42642 | 16833 ft | 333 kts | 103° |
| 2026-05-06 01:21 | 9.11841 | -80.40378 | 16380 ft | 331 kts | 103° |
| 2026-05-06 01:22 | 9.11271 | -80.38138 | 16018 ft | 327 kts | 103° |
| 2026-05-06 01:22 | 9.10707 | -80.35929 | 15676 ft | 322 kts | 103° |
| 2026-05-06 01:22 | 9.10151 | -80.33750 | 15342 ft | 318 kts | 103° |
| 2026-05-06 01:22 | 9.09609 | -80.31622 | 15020 ft | 313 kts | 103° |
| 2026-05-06 01:23 | 9.09068 | -80.29500 | 14696 ft | 309 kts | 103° |
| 2026-05-06 01:23 | 9.08533 | -80.27406 | 14378 ft | 305 kts | 103° |
| 2026-05-06 01:23 | 9.08002 | -80.25324 | 14070 ft | 302 kts | 103° |
| 2026-05-06 01:23 | 9.07485 | -80.23299 | 13764 ft | 300 kts | 103° |
| 2026-05-06 01:24 | 9.06957 | -80.21228 | 13413 ft | 301 kts | 103° |
| 2026-05-06 01:24 | 9.06439 | -80.19199 | 13091 ft | 304 kts | 103° |
| 2026-05-06 01:24 | 9.05902 | -80.17090 | 12768 ft | 311 kts | 103° |
| 2026-05-06 01:24 | 9.05357 | -80.14955 | 12434 ft | 313 kts | 103° |
| 2026-05-06 01:25 | 9.04814 | -80.12833 | 12092 ft | 309 kts | 103° |
| 2026-05-06 01:25 | 9.04285 | -80.10765 | 11765 ft | 304 kts | 103° |
| 2026-05-06 01:25 | 9.03757 | -80.08704 | 11445 ft | 300 kts | 103° |
| 2026-05-06 01:25 | 9.03237 | -80.06669 | 11128 ft | 296 kts | 103° |
| 2026-05-06 01:26 | 9.02728 | -80.04679 | 10824 ft | 292 kts | 103° |
| 2026-05-06 01:26 | 9.02222 | -80.02703 | 10517 ft | 288 kts | 103° |
| 2026-05-06 01:26 | 9.01723 | -80.00756 | 10359 ft | 282 kts | 103° |
| 2026-05-06 01:26 | 9.01234 | -79.98847 | 10227 ft | 277 kts | 103° |
| 2026-05-06 01:27 | 9.00756 | -79.96975 | 10121 ft | 280 kts | 103° |
| 2026-05-06 01:27 | 9.00266 | -79.95060 | 9939 ft | 281 kts | 103° |
| 2026-05-06 01:27 | 8.99775 | -79.93143 | 9632 ft | 281 kts | 103° |
| 2026-05-06 01:27 | 8.99285 | -79.91231 | 9329 ft | 280 kts | 103° |
| 2026-05-06 01:28 | 8.98797 | -79.89328 | 9030 ft | 279 kts | 103° |
| 2026-05-06 01:28 | 8.98312 | -79.87435 | 8736 ft | 278 kts | 103° |
| 2026-05-06 01:28 | 8.97828 | -79.85547 | 8450 ft | 277 kts | 103° |
| 2026-05-06 01:28 | 8.97350 | -79.83683 | 8161 ft | 275 kts | 103° |
| 2026-05-06 01:29 | 8.96869 | -79.81808 | 7872 ft | 274 kts | 103° |
| 2026-05-06 01:29 | 8.96390 | -79.79940 | 7592 ft | 274 kts | 103° |
| 2026-05-06 01:29 | 8.95911 | -79.78072 | 7305 ft | 273 kts | 103° |
| 2026-05-06 01:29 | 8.95438 | -79.76231 | 7028 ft | 273 kts | 103° |
| 2026-05-06 01:30 | 8.94960 | -79.74369 | 6742 ft | 272 kts | 103° |
| 2026-05-06 01:30 | 8.94485 | -79.72517 | 6461 ft | 272 kts | 103° |
| 2026-05-06 01:30 | 8.94170 | -79.71290 | 6268 ft | 272 kts | 103° |
| 2026-05-06 01:30 | 8.93659 | -79.69302 | 5944 ft | 271 kts | 103° |
| 2026-05-06 01:31 | 8.93183 | -79.67447 | 5659 ft | 271 kts | 103° |
| 2026-05-06 01:31 | 8.92710 | -79.65606 | 5370 ft | 270 kts | 103° |
| 2026-05-06 01:31 | 8.92237 | -79.63765 | 5091 ft | 270 kts | 103° |
| 2026-05-06 01:31 | 8.91770 | -79.61951 | 4974 ft | 263 kts | 102° |
| 2026-05-06 01:32 | 8.91314 | -79.60181 | 4840 ft | 257 kts | 103° |
| 2026-05-06 01:32 | 8.90906 | -79.58433 | 4601 ft | 255 kts | 99° |
| 2026-05-06 01:32 | 8.90584 | -79.56709 | 4515 ft | 241 kts | 98° |
| 2026-05-06 01:32 | 8.90289 | -79.55101 | 4389 ft | 223 kts | 98° |
| 2026-05-06 01:33 | 8.90015 | -79.53632 | 4182 ft | 209 kts | 98° |
| 2026-05-06 01:33 | 8.89752 | -79.52232 | 4084 ft | 193 kts | 98° |
| 2026-05-06 01:33 | 8.89499 | -79.50889 | 4092 ft | 196 kts | 98° |
| 2026-05-06 01:33 | 8.89347 | -79.49474 | 3549 ft | 203 kts | 78° |
| 2026-05-06 01:34 | 8.90006 | -79.48298 | 3275 ft | 189 kts | 40° |
| 2026-05-06 01:34 | 8.91005 | -79.47471 | 3034 ft | 185 kts | 37° |
| 2026-05-06 01:34 | 8.92030 | -79.46696 | 2794 ft | 183 kts | 36° |
| 2026-05-06 01:34 | 8.93088 | -79.45977 | 2585 ft | 183 kts | 31° |
| 2026-05-06 01:35 | 8.94149 | -79.45342 | 2320 ft | 175 kts | 30° |
| 2026-05-06 01:35 | 8.95158 | -79.44762 | 2114 ft | 160 kts | 29° |
| 2026-05-06 01:35 | 8.96097 | -79.44224 | 1934 ft | 153 kts | 29° |
| 2026-05-06 01:35 | 8.97029 | -79.43691 | 1733 ft | 155 kts | 28° |
| 2026-05-06 01:36 | 8.97969 | -79.43153 | 1525 ft | 155 kts | 28° |
| 2026-05-06 01:36 | 8.98896 | -79.42621 | 1329 ft | 154 kts | 28° |
| 2026-05-06 01:36 | 8.99828 | -79.42088 | 1150 ft | 154 kts | 28° |
| 2026-05-06 01:36 | 9.00768 | -79.41549 | 962 ft | 156 kts | 28° |
| 2026-05-06 01:37 | 9.01725 | -79.41001 | 760 ft | 158 kts | 28° |
| 2026-05-06 01:37 | 9.02681 | -79.40453 | 552 ft | 157 kts | 28° |
| 2026-05-06 01:37 | 9.03625 | -79.39909 | 332 ft | 158 kts | 28° |
| 2026-05-06 01:37 | 9.04588 | -79.39357 | 120 ft | 158 kts | 28° |
| 2026-05-06 01:38 | 9.05505 | -79.38840 | 29 ft | 137 kts | 29° |
| 2026-05-06 01:38 | 9.06202 | -79.38446 | 30 ft | 84 kts | 27° |
| 2026-05-06 01:38 | 9.06569 | -79.38377 | 29 ft | 34 kts | 1° |
| 2026-05-06 01:38 | 9.06675 | -79.38501 | 29 ft | 23 kts | 303° |
| 2026-05-06 01:39 | 9.06703 | -79.38546 | 29 ft | 4 kts | 303° |
| 2026-05-06 01:39 | 9.06710 | -79.38559 | 29 ft | 0 kts | 300° |